Time;durP1;ratioP1;P1;durP2;ratioP2;P2;SDS_P1;SDS_P2;PMS_P1;PMS_P2;Temp;Humidity;BMP_temperature;BMP_pressure;BME280_temperature;BME280_humidity;BME280_pressure;Samples;Min_cycle;Max_cycle;Signal;HPM_P1;HPM_P2
2021/09/18 00:01:49;;;;;;;6.93;2.88;;;;;;;12.99;76.08;98120.03;5050373;28;20023;-70
2021/09/18 00:04:15;;;;;;;8.95;3.50;;;;;;;12.98;75.95;98127.47;5049379;28;20036;-70
2021/09/18 00:06:41;;;;;;;5.10;2.80;;;;;;;13.00;76.40;98122.47;5050583;28;20079;-69
2021/09/18 00:09:07;;;;;;;5.32;3.00;;;;;;;13.00;76.07;98130.72;5048917;28;20021;-69
2021/09/18 00:11:32;;;;;;;7.53;3.63;;;;;;;12.97;75.86;98120.34;5049572;28;20025;-69
2021/09/18 00:13:58;;;;;;;8.02;4.13;;;;;;;12.97;75.90;98125.84;5049496;28;20013;-70
2021/09/18 00:16:23;;;;;;;4.82;3.00;;;;;;;12.94;75.87;98132.81;5049261;28;20031;-69
2021/09/18 00:18:49;;;;;;;5.60;2.97;;;;;;;12.95;75.68;98126.19;5049708;28;20452;-69
2021/09/18 00:21:14;;;;;;;4.68;2.90;;;;;;;12.95;75.99;98130.88;5050154;28;20017;-69
2021/09/18 00:23:39;;;;;;;4.55;2.63;;;;;;;12.93;75.60;98122.94;5050178;28;20037;-69
2021/09/18 00:26:05;;;;;;;3.00;2.45;;;;;;;12.97;75.79;98131.38;5049898;28;20098;-69
2021/09/18 00:28:30;;;;;;;3.90;2.40;;;;;;;12.97;75.72;98133.31;5053412;28;20731;-69
2021/09/18 00:30:56;;;;;;;4.63;2.88;;;;;;;12.98;75.85;98126.69;5053518;28;20056;-69
2021/09/18 00:33:21;;;;;;;3.53;2.70;;;;;;;12.94;75.54;98132.00;5053868;28;20032;-69
2021/09/18 00:35:47;;;;;;;4.68;2.78;;;;;;;12.91;75.44;98129.88;5054006;28;20064;-69
2021/09/18 00:38:13;;;;;;;2.78;2.47;;;;;;;12.91;75.50;98122.44;5053904;28;20487;-68
2021/09/18 00:40:39;;;;;;;3.85;2.67;;;;;;;12.94;75.44;98132.00;5053873;28;20461;-68
2021/09/18 00:43:05;;;;;;;4.43;2.75;;;;;;;12.93;75.17;98128.44;5047659;28;20029;-69
2021/09/18 00:45:30;;;;;;;5.22;2.80;;;;;;;12.95;75.30;98128.13;5052351;28;20370;-68
2021/09/18 00:47:55;;;;;;;3.25;2.33;;;;;;;12.93;75.25;98124.88;5052920;28;20390;-69
2021/09/18 00:50:21;;;;;;;4.20;2.90;;;;;;;12.93;75.27;98122.94;5052789;28;20024;-69
2021/09/18 00:52:47;;;;;;;2.50;2.30;;;;;;;12.97;75.31;98127.81;5052824;28;20053;-69
2021/09/18 00:55:13;;;;;;;3.00;2.50;;;;;;;12.97;75.03;98130.56;5052735;28;20485;-69
2021/09/18 00:57:41;;;;;;;3.60;2.63;;;;;;;12.98;75.15;98129.44;5052769;28;20119;-69
2021/09/18 01:00:09;;;;;;;3.33;3.03;;;;;;;12.95;75.19;98123.44;5048154;28;20017;-69
2021/09/18 01:02:35;;;;;;;3.13;2.80;;;;;;;12.99;75.28;98131.84;5049250;28;20124;-69
2021/09/18 01:05:00;;;;;;;6.72;5.35;;;;;;;12.98;75.10;98132.97;5049883;28;20104;-68
2021/09/18 01:07:26;;;;;;;18.75;8.50;;;;;;;12.97;75.34;98128.59;5050538;28;20021;-69
2021/09/18 01:09:51;;;;;;;6.47;3.97;;;;;;;12.97;75.12;98131.38;5051707;28;20086;-67
2021/09/18 01:12:17;;;;;;;9.70;4.32;;;;;;;13.04;75.32;98130.91;5051429;28;20572;-69
2021/09/18 01:14:44;;;;;;;9.43;4.10;;;;;;;13.06;75.46;98132.19;5052244;28;20033;-69
2021/09/18 01:17:09;;;;;;;9.95;4.10;;;;;;;13.06;74.92;98129.44;5051807;28;20028;-67
2021/09/18 01:19:35;;;;;;;7.85;3.58;;;;;;;13.11;75.27;98128.47;5051129;28;20021;-69
2021/09/18 01:22:02;;;;;;;8.38;4.18;;;;;;;13.13;75.25;98119.91;5051341;28;20087;-69
2021/09/18 01:24:28;;;;;;;7.97;3.45;;;;;;;13.14;74.55;98122.31;5050859;28;20094;-69
2021/09/18 01:26:53;;;;;;;5.38;3.40;;;;;;;13.12;74.59;98119.09;5051450;28;20017;-69
2021/09/18 01:29:19;;;;;;;4.55;2.88;;;;;;;13.16;74.95;98127.53;5051736;28;20029;-70
2021/09/18 01:31:46;;;;;;;4.03;2.88;;;;;;;13.18;75.02;98120.56;5050952;28;20469;-69
2021/09/18 01:34:30;;;;;;;5.72;2.92;;;;;;;13.22;75.02;98118.78;5050672;28;20029;-69
2021/09/18 01:36:55;;;;;;;3.08;2.35;;;;;;;13.28;75.03;98122.19;5050949;28;20033;-69
2021/09/18 01:39:22;;;;;;;4.35;2.75;;;;;;;13.31;74.92;98112.47;5050968;28;20031;-69
2021/09/18 01:41:48;;;;;;;3.42;2.53;;;;;;;13.39;75.05;98120.72;5050836;28;20029;-69
2021/09/18 01:44:16;;;;;;;3.78;2.78;;;;;;;13.50;75.03;98106.69;5050785;28;20128;-69
2021/09/18 01:46:41;;;;;;;3.25;2.42;;;;;;;13.53;75.07;98106.81;5051129;28;20013;-68
2021/09/18 01:49:18;;;;;;;4.43;2.47;;;;;;;13.58;74.82;98105.03;5050399;28;20025;-69
2021/09/18 01:51:56;;;;;;;4.15;2.40;;;;;;;13.55;74.54;98107.31;5049061;28;20029;-69
2021/09/18 01:54:22;;;;;;;4.45;2.60;;;;;;;13.54;74.57;98097.44;5048421;28;20028;-68
2021/09/18 01:56:47;;;;;;;2.88;2.20;;;;;;;13.58;74.76;98102.28;5051165;28;20502;-68
2021/09/18 01:59:13;;;;;;;2.80;2.35;;;;;;;13.55;74.49;98101.00;5049921;28;20025;-68
2021/09/18 02:01:38;;;;;;;3.85;2.72;;;;;;;13.55;74.53;98101.00;5046678;28;20079;-68
2021/09/18 02:04:04;;;;;;;2.85;2.60;;;;;;;13.58;74.33;98105.88;5050461;28;20056;-69
2021/09/18 02:06:29;;;;;;;4.75;2.72;;;;;;;13.54;74.37;98100.19;5050972;28;20552;-69
2021/09/18 02:08:55;;;;;;;3.67;2.60;;;;;;;13.50;74.26;98101.97;5050004;28;20365;-69
2021/09/18 02:11:20;;;;;;;3.30;2.40;;;;;;;13.47;74.44;98104.56;5048694;28;20550;-69
2021/09/18 02:13:47;;;;;;;4.45;3.22;;;;;;;13.43;74.75;98106.34;5050599;28;20052;-69
2021/09/18 02:16:12;;;;;;;3.50;2.95;;;;;;;13.46;74.67;98114.75;5050569;28;20041;-69
2021/09/18 02:18:38;;;;;;;5.60;3.60;;;;;;;13.45;74.43;98118.66;5050355;28;20091;-69
2021/09/18 02:21:04;;;;;;;4.03;3.15;;;;;;;13.45;74.47;98112.34;5050471;28;20107;-69
2021/09/18 02:23:29;;;;;;;5.55;3.42;;;;;;;13.46;74.70;98113.97;5048704;28;20120;-69
2021/09/18 02:25:55;;;;;;;3.55;3.00;;;;;;;13.50;74.99;98109.44;5050265;28;20035;-69
2021/09/18 02:28:20;;;;;;;3.30;3.00;;;;;;;13.47;74.59;98110.06;5050385;28;20021;-69
2021/09/18 02:30:45;;;;;;;5.70;3.55;;;;;;;13.46;74.61;98108.47;5050223;28;20036;-69
2021/09/18 02:33:11;;;;;;;3.55;2.83;;;;;;;13.42;74.51;98113.81;5050129;28;20397;-69
2021/09/18 02:35:36;;;;;;;4.32;3.00;;;;;;;13.39;74.55;98104.22;5050147;28;20082;-69
2021/09/18 02:38:03;;;;;;;5.15;3.20;;;;;;;13.45;74.71;98101.31;5049704;28;20033;-69
2021/09/18 02:40:29;;;;;;;4.22;3.30;;;;;;;13.47;74.44;98110.06;5047376;28;20036;-69
2021/09/18 02:42:58;;;;;;;4.20;3.08;;;;;;;13.45;74.53;98106.84;5050352;28;20025;-69
2021/09/18 02:45:24;;;;;;;4.53;3.33;;;;;;;13.44;74.31;98110.72;5049885;28;20035;-69
2021/09/18 02:47:51;;;;;;;3.72;3.30;;;;;;;13.39;73.81;98109.72;5049977;28;20096;-69
2021/09/18 02:50:18;;;;;;;5.18;3.58;;;;;;;13.36;74.26;98106.81;5049179;28;20025;-70
2021/09/18 02:52:44;;;;;;;4.72;3.17;;;;;;;13.37;74.08;98108.44;5049790;28;20109;-69
2021/09/18 02:55:11;;;;;;;5.38;3.55;;;;;;;13.38;73.99;98108.09;5047309;28;20112;-70
2021/09/18 02:57:37;;;;;;;4.97;4.45;;;;;;;13.37;74.08;98106.47;5049951;28;20029;-69
2021/09/18 03:00:04;;;;;;;5.30;4.80;;;;;;;13.39;73.87;98106.16;5048249;28;20032;-69
2021/09/18 03:02:31;;;;;;;4.53;4.13;;;;;;;13.33;73.86;98102.75;5046892;28;20020;-69
2021/09/18 03:04:56;;;;;;;5.68;4.05;;;;;;;13.25;73.48;98103.53;5049703;28;20039;-69
2021/09/18 03:07:22;;;;;;;5.45;4.95;;;;;;;13.20;73.73;98090.75;5049562;28;20029;-69
2021/09/18 03:09:47;;;;;;;5.22;4.72;;;;;;;13.23;73.73;98092.88;5049527;28;20017;-69
2021/09/18 03:12:13;;;;;;;5.03;4.40;;;;;;;13.23;73.70;98095.63;5049732;28;20580;-69
2021/09/18 03:14:39;;;;;;;8.65;5.10;;;;;;;13.20;73.45;98085.25;5049223;28;20537;-69
2021/09/18 03:17:04;;;;;;;6.07;5.10;;;;;;;13.18;73.45;98087.50;5049706;28;21362;-69
2021/09/18 03:19:29;;;;;;;7.32;6.38;;;;;;;13.20;73.60;98090.75;5046591;28;20021;-69
2021/09/18 03:21:55;;;;;;;6.38;5.10;;;;;;;13.23;73.80;98092.88;5048220;28;20032;-69
2021/09/18 03:24:21;;;;;;;7.78;5.80;;;;;;;13.22;73.33;98090.44;5049129;28;20048;-69
2021/09/18 03:26:46;;;;;;;5.72;4.47;;;;;;;13.16;73.20;98097.25;5048220;28;20021;-70
2021/09/18 03:29:12;;;;;;;6.65;5.07;;;;;;;13.09;73.19;98094.94;5049211;28;20044;-69
2021/09/18 03:31:39;;;;;;;5.13;4.63;;;;;;;13.09;73.39;98086.69;5049115;28;20082;-69
2021/09/18 03:34:05;;;;;;;6.50;5.18;;;;;;;13.07;73.51;98087.03;5048913;28;20029;-69
2021/09/18 03:36:31;;;;;;;6.57;5.05;;;;;;;13.14;73.63;98085.72;5049364;28;20024;-69
2021/09/18 03:38:56;;;;;;;5.20;4.70;;;;;;;13.10;73.50;98078.13;5047981;28;20461;-70
2021/09/18 03:41:22;;;;;;;4.32;3.92;;;;;;;13.09;73.65;98081.19;5048628;28;20773;-70
2021/09/18 03:43:47;;;;;;;6.45;4.30;;;;;;;13.06;73.46;98082.66;5049078;28;20024;-69
2021/09/18 03:46:13;;;;;;;4.05;2.97;;;;;;;13.00;73.27;98080.38;5049062;28;20507;-69
2021/09/18 03:48:38;;;;;;;4.28;3.25;;;;;;;12.91;73.02;98083.91;5048145;28;20175;-69
2021/09/18 03:51:04;;;;;;;3.30;3.00;;;;;;;12.89;73.08;98085.34;5049001;28;20040;-70
2021/09/18 03:53:31;;;;;;;4.00;3.20;;;;;;;12.86;73.30;98084.06;5049005;28;20021;-70
2021/09/18 03:55:57;;;;;;;3.85;2.70;;;;;;;12.85;72.97;98084.38;5049350;28;20025;-70
2021/09/18 03:58:23;;;;;;;3.50;2.70;;;;;;;12.84;73.46;98082.78;5049444;28;20765;-69
2021/09/18 04:00:49;;;;;;;3.30;3.00;;;;;;;12.83;72.83;98095.72;5049262;28;20036;-70
2021/09/18 04:03:14;;;;;;;4.45;2.60;;;;;;;12.82;73.04;98094.09;5053330;28;20021;-70
2021/09/18 04:05:39;;;;;;;3.70;2.50;;;;;;;12.76;73.15;98092.63;5052786;28;20033;-70
2021/09/18 04:08:07;;;;;;;2.58;2.38;;;;;;;12.73;72.65;98099.59;5052497;28;20036;-70
2021/09/18 04:10:33;;;;;;;2.40;2.20;;;;;;;12.68;72.62;98096.97;5049388;28;20460;-70
2021/09/18 04:12:58;;;;;;;2.75;2.22;;;;;;;12.59;72.59;98098.88;5052752;28;20033;-70
2021/09/18 04:15:23;;;;;;;3.40;3.10;;;;;;;12.57;72.43;98098.38;5053082;28;20032;-70
2021/09/18 04:17:49;;;;;;;2.65;2.25;;;;;;;12.50;72.98;98098.84;5052567;28;20036;-70
2021/09/18 04:20:14;;;;;;;8.38;6.45;;;;;;;12.47;72.63;98097.53;5052588;28;20021;-70
2021/09/18 04:22:40;;;;;;;3.08;2.20;;;;;;;12.42;72.80;98097.69;5052938;28;20093;-69
2021/09/18 04:25:05;;;;;;;2.03;1.83;;;;;;;12.32;72.68;98100.72;5052566;28;20057;-69
2021/09/18 04:27:31;;;;;;;3.55;2.13;;;;;;;12.27;72.77;98098.91;5051530;28;20021;-70
2021/09/18 04:29:56;;;;;;;3.80;2.08;;;;;;;12.27;72.84;98093.41;5052272;28;20049;-70
2021/09/18 04:32:22;;;;;;;2.35;2.05;;;;;;;12.29;73.34;98104.09;5051690;28;20115;-69
2021/09/18 04:34:47;;;;;;;3.03;2.05;;;;;;;12.20;72.84;98104.06;5052508;28;20499;-69
2021/09/18 04:37:14;;;;;;;3.00;2.38;;;;;;;12.12;72.98;98102.88;5051106;28;20032;-70
2021/09/18 04:39:39;;;;;;;2.53;2.03;;;;;;;12.09;73.04;98103.50;5051832;28;20044;-69
2021/09/18 04:42:05;;;;;;;2.97;1.92;;;;;;;12.06;73.51;98104.13;5052082;28;20021;-70
2021/09/18 04:44:30;;;;;;;5.28;2.67;;;;;;;12.00;72.96;98106.22;5051810;28;20079;-70
2021/09/18 04:46:55;;;;;;;2.83;2.22;;;;;;;11.96;73.04;98110.69;5050919;28;20059;-70
2021/09/18 04:49:22;;;;;;;3.05;2.05;;;;;;;11.91;72.82;98108.88;5052182;28;20025;-70
2021/09/18 04:51:47;;;;;;;2.55;2.25;;;;;;;11.84;73.20;98111.25;5050712;28;20017;-69
2021/09/18 04:54:13;;;;;;;2.45;2.00;;;;;;;11.82;73.17;98108.00;5051642;28;20036;-69
2021/09/18 04:56:38;;;;;;;3.45;1.85;;;;;;;11.81;73.15;98111.88;5050594;28;20078;-70
2021/09/18 04:59:04;;;;;;;2.30;2.10;;;;;;;11.79;73.57;98105.91;5050850;28;20025;-70
2021/09/18 05:01:29;;;;;;;3.50;2.40;;;;;;;11.77;73.40;98111.72;5051843;28;20115;-69
2021/09/18 05:03:55;;;;;;;2.60;2.40;;;;;;;11.75;73.73;98108.47;5051734;28;20075;-69
2021/09/18 05:06:20;;;;;;;2.80;2.60;;;;;;;11.76;74.26;98114.75;5051664;28;20025;-70
2021/09/18 05:08:45;;;;;;;2.40;2.20;;;;;;;11.73;74.02;98113.47;5052098;28;20029;-70
2021/09/18 05:11:11;;;;;;;3.92;2.20;;;;;;;11.75;74.07;98115.88;5051041;28;20037;-70
2021/09/18 05:13:36;;;;;;;2.20;2.00;;;;;;;11.74;73.62;98115.09;5050853;28;20110;-69
2021/09/18 05:16:02;;;;;;;2.40;1.88;;;;;;;11.70;73.83;98125.06;5051058;28;20086;-69
2021/09/18 05:18:30;;;;;;;2.30;2.10;;;;;;;11.72;73.82;98119.25;5051657;28;20021;-70
2021/09/18 05:20:55;;;;;;;3.70;1.90;;;;;;;11.70;74.40;98127.81;5051699;28;20036;-69
2021/09/18 05:23:21;;;;;;;2.42;2.22;;;;;;;11.72;74.27;98122.81;5051294;28;20045;-70
2021/09/18 05:25:46;;;;;;;1.92;1.83;;;;;;;11.78;74.16;98126.25;5051414;28;20029;-70
2021/09/18 05:28:11;;;;;;;3.65;2.20;;;;;;;11.84;73.98;98126.91;5051426;28;20020;-70
2021/09/18 05:30:37;;;;;;;2.20;1.90;;;;;;;11.84;74.43;98130.50;5052613;28;20044;-69
2021/09/18 05:33:02;;;;;;;2.03;1.88;;;;;;;11.83;74.30;98137.13;5052884;28;20132;-70
2021/09/18 05:35:28;;;;;;;4.13;2.50;;;;;;;11.80;74.21;98134.19;5052681;28;20115;-69
2021/09/18 05:37:53;;;;;;;2.50;1.90;;;;;;;11.78;74.26;98131.75;5052231;28;20055;-69
2021/09/18 05:40:24;;;;;;;2.40;2.20;;;;;;;11.79;74.03;98133.38;5052686;28;20033;-69
2021/09/18 05:42:49;;;;;;;1.98;1.80;;;;;;;11.77;74.50;98130.94;5052117;28;20072;-69
2021/09/18 05:45:15;;;;;;;2.70;2.17;;;;;;;11.77;74.20;98132.88;5052122;28;20441;-70
2021/09/18 05:47:40;;;;;;;2.65;2.00;;;;;;;11.82;73.83;98140.19;5051403;28;20393;-69
2021/09/18 05:50:06;;;;;;;2.47;1.92;;;;;;;11.83;74.36;98137.13;5051971;28;20031;-69
2021/09/18 05:52:32;;;;;;;1.90;1.70;;;;;;;11.88;74.46;98138.91;5051418;28;20039;-69
2021/09/18 05:54:59;;;;;;;2.00;1.77;;;;;;;11.89;74.02;98135.03;5051843;28;20028;-70
2021/09/18 05:57:24;;;;;;;3.28;1.92;;;;;;;11.97;73.93;98141.75;5052152;28;20074;-70
2021/09/18 05:59:50;;;;;;;2.13;1.80;;;;;;;12.05;74.58;98132.75;5051754;28;20040;-70
2021/09/18 06:02:16;;;;;;;1.70;1.60;;;;;;;12.08;73.88;98134.88;5050135;28;20465;-69
2021/09/18 06:04:42;;;;;;;2.10;1.90;;;;;;;12.13;74.44;98136.69;5051586;28;20036;-69
2021/09/18 06:07:07;;;;;;;2.33;1.80;;;;;;;12.18;74.05;98139.31;5052140;28;20082;-69
2021/09/18 06:09:32;;;;;;;3.00;1.52;;;;;;;12.19;73.67;98130.75;5051466;28;20025;-70
2021/09/18 06:11:58;;;;;;;2.13;1.50;;;;;;;12.23;73.62;98132.84;5051806;28;20031;-70
2021/09/18 06:14:23;;;;;;;1.67;1.50;;;;;;;12.24;73.94;98140.78;5051380;28;20642;-70
2021/09/18 06:16:49;;;;;;;1.88;1.77;;;;;;;12.29;74.09;98132.41;5051668;28;20389;-70
2021/09/18 06:19:18;;;;;;;2.22;2.00;;;;;;;12.34;73.81;98128.72;5051042;28;20033;-69
2021/09/18 06:21:45;;;;;;;3.40;1.80;;;;;;;12.41;73.82;98131.00;5051874;28;20120;-70
2021/09/18 06:24:11;;;;;;;2.97;1.90;;;;;;;12.40;73.45;98130.22;5050624;28;20040;-69
2021/09/18 06:26:38;;;;;;;2.78;2.47;;;;;;;12.44;72.98;98133.94;5050951;28;20039;-70
2021/09/18 06:29:04;;;;;;;3.67;2.08;;;;;;;12.46;73.18;98131.66;5051213;28;20029;-69
2021/09/18 06:31:30;;;;;;;3.15;1.77;;;;;;;12.50;73.43;98140.13;5051010;28;20029;-70
2021/09/18 06:33:55;;;;;;;3.63;2.17;;;;;;;12.54;72.95;98140.28;5050960;28;20104;-70
2021/09/18 06:36:21;;;;;;;3.10;2.13;;;;;;;12.57;73.34;98145.16;5051106;28;20033;-70
2021/09/18 06:38:46;;;;;;;2.92;2.15;;;;;;;12.59;73.28;98140.97;5050348;28;20477;-70
2021/09/18 06:41:12;;;;;;;5.30;2.40;;;;;;;12.65;73.04;98144.38;5049497;28;20035;-69
2021/09/18 06:43:38;;;;;;;2.35;2.15;;;;;;;12.72;73.42;98152.16;5049671;28;20366;-69
2021/09/18 06:46:03;;;;;;;2.78;2.50;;;;;;;12.74;72.41;98150.75;5048842;28;20500;-69
2021/09/18 06:48:29;;;;;;;3.30;2.40;;;;;;;12.73;72.46;98149.13;5049609;28;20386;-70
2021/09/18 06:50:55;;;;;;;2.35;2.15;;;;;;;12.71;72.12;98145.88;5050932;28;20033;-69
2021/09/18 06:53:20;;;;;;;5.75;2.08;;;;;;;12.71;72.07;98140.38;5050799;28;20036;-70
2021/09/18 06:55:45;;;;;;;2.50;2.13;;;;;;;12.68;72.39;98140.16;5050608;28;20029;-70
2021/09/18 06:58:11;;;;;;;5.78;2.42;;;;;;;12.72;72.26;98149.41;5050063;28;20035;-70
2021/09/18 07:00:36;;;;;;;6.22;2.40;;;;;;;12.80;72.55;98148.63;5049282;28;20071;-70
2021/09/18 07:03:02;;;;;;;2.92;1.88;;;;;;;12.80;72.30;98151.41;5049403;28;20111;-70
2021/09/18 07:05:27;;;;;;;2.33;2.13;;;;;;;12.86;72.54;98152.03;5049531;28;20028;-70
2021/09/18 07:07:52;;;;;;;3.50;2.10;;;;;;;12.95;72.60;98150.13;5049069;28;20027;-70
2021/09/18 07:10:18;;;;;;;2.33;2.13;;;;;;;12.95;72.28;98156.47;5049313;28;20029;-69
2021/09/18 07:12:43;;;;;;;2.42;1.83;;;;;;;12.97;72.16;98158.09;5049102;28;20021;-70
2021/09/18 07:15:10;;;;;;;3.05;2.25;;;;;;;13.01;71.94;98153.56;5049759;28;20083;-70
2021/09/18 07:17:35;;;;;;;2.22;2.03;;;;;;;13.03;71.71;98151.31;5049374;28;20021;-70
2021/09/18 07:20:01;;;;;;;5.05;2.58;;;;;;;13.04;71.54;98153.72;5048932;28;20045;-69
2021/09/18 07:22:27;;;;;;;4.50;2.50;;;;;;;13.01;71.43;98151.63;5050577;28;20115;-70
2021/09/18 07:24:53;;;;;;;3.88;1.88;;;;;;;13.01;71.35;98151.63;5050725;28;20497;-70
2021/09/18 07:27:20;;;;;;;3.13;2.83;;;;;;;13.03;71.73;98154.84;5050954;28;20079;-69
2021/09/18 07:29:49;;;;;;;5.80;2.72;;;;;;;13.05;71.10;98154.53;5050750;28;20400;-69
2021/09/18 07:32:15;;;;;;;3.17;2.30;;;;;;;13.12;71.64;98154.06;5050722;28;20021;-69
2021/09/18 07:34:40;;;;;;;2.92;2.55;;;;;;;13.10;71.12;98151.63;5050858;28;20503;-69
2021/09/18 07:37:05;;;;;;;3.25;1.85;;;;;;;13.14;71.68;98152.63;5049557;28;20028;-68
2021/09/18 07:39:31;;;;;;;3.58;2.15;;;;;;;13.20;71.44;98153.28;5048864;28;20466;-69
2021/09/18 07:41:58;;;;;;;2.78;1.98;;;;;;;13.20;70.78;98148.56;5049753;28;20021;-70
2021/09/18 07:44:24;;;;;;;4.05;2.00;;;;;;;13.25;71.28;98147.59;5048691;28;20033;-69
2021/09/18 07:46:51;;;;;;;2.28;2.00;;;;;;;13.31;71.13;98140.81;5050539;28;20033;-70
2021/09/18 07:49:17;;;;;;;2.80;2.42;;;;;;;13.35;70.15;98143.75;5063220;28;20496;-69
2021/09/18 07:51:43;;;;;;;4.60;3.55;;;;;;;13.40;70.92;98149.09;5070199;28;20008;-69
2021/09/18 07:54:09;;;;;;;2.90;2.50;;;;;;;13.46;70.89;98145.06;5070136;28;20032;-69
2021/09/18 07:56:34;;;;;;;3.78;2.67;;;;;;;13.53;70.52;98147.34;5053013;28;20017;-69
2021/09/18 07:59:01;;;;;;;2.72;2.35;;;;;;;13.57;70.51;98153.84;5043352;28;20032;-70
2021/09/18 08:01:30;;;;;;;2.95;2.70;;;;;;;13.62;69.23;98141.84;5048983;28;20622;-69
2021/09/18 08:03:58;;;;;;;3.57;2.73;;;;;;;13.65;69.39;98157.72;5048556;28;20489;-69
2021/09/18 08:06:25;;;;;;;3.10;2.80;;;;;;;13.67;68.72;98159.00;5048215;28;20033;-69
2021/09/18 08:08:52;;;;;;;3.30;3.00;;;;;;;13.70;68.83;98154.81;5047710;28;20401;-69
2021/09/18 08:11:19;;;;;;;4.18;2.92;;;;;;;13.78;69.30;98148.50;5043669;28;20120;-69
2021/09/18 08:13:46;;;;;;;4.30;2.83;;;;;;;13.84;69.01;98152.72;5048625;28;20048;-69
2021/09/18 08:16:12;;;;;;;3.10;2.80;;;;;;;13.84;67.37;98152.72;5047841;28;20056;-69
2021/09/18 08:18:38;;;;;;;5.57;2.80;;;;;;;13.81;66.75;98153.34;5045137;28;20056;-69
2021/09/18 08:21:04;;;;;;;2.78;2.47;;;;;;;13.77;66.52;98152.38;5047648;28;20033;-69
2021/09/18 08:23:29;;;;;;;3.22;2.78;;;;;;;13.77;67.17;98149.63;5047807;28;20489;-69
2021/09/18 08:25:55;;;;;;;2.60;2.40;;;;;;;13.82;66.88;98148.63;5047851;28;20039;-69
2021/09/18 08:28:20;;;;;;;4.28;3.10;;;;;;;13.86;66.81;98157.09;5047733;28;20385;-70
2021/09/18 08:30:46;;;;;;;4.75;3.38;;;;;;;13.91;66.74;98152.22;5047925;28;20494;-69
2021/09/18 08:33:11;;;;;;;4.38;3.30;;;;;;;13.98;67.09;98157.22;5047796;28;20025;-68
2021/09/18 08:35:36;;;;;;;3.67;3.38;;;;;;;14.07;66.80;98159.94;5047926;28;20029;-69
2021/09/18 08:38:02;;;;;;;3.72;3.30;;;;;;;14.12;66.41;98146.00;5049223;28;20036;-69
2021/09/18 08:40:27;;;;;;;3.58;2.92;;;;;;;14.17;65.82;98143.06;5048744;28;20056;-69
2021/09/18 08:42:54;;;;;;;5.55;3.70;;;;;;;14.22;65.94;98151.19;5049087;28;20036;-68
2021/09/18 08:45:20;;;;;;;3.80;3.50;;;;;;;14.22;65.36;98158.66;5047950;28;20060;-69
2021/09/18 08:47:46;;;;;;;3.45;3.15;;;;;;;14.18;64.68;98150.22;5048103;28;20068;-70
2021/09/18 08:50:15;;;;;;;3.33;3.03;;;;;;;14.14;64.83;98150.06;5050882;28;20044;-69
2021/09/18 08:52:42;;;;;;;4.43;2.70;;;;;;;14.19;65.54;98151.03;5046937;28;20066;-76
2021/09/18 08:55:08;;;;;;;4.13;3.70;;;;;;;14.24;65.36;98148.91;5051391;28;20827;-76
2021/09/18 08:57:33;;;;;;;4.85;3.22;;;;;;;14.32;65.55;98151.97;5050777;28;20052;-76
2021/09/18 08:59:58;;;;;;;3.88;3.47;;;;;;;14.38;64.28;98147.91;5051015;28;20021;-77
2021/09/18 09:02:27;;;;;;;4.38;3.60;;;;;;;14.43;64.92;98144.97;5049040;28;20036;-76
2021/09/18 09:05:14;;;;;;;3.40;3.10;;;;;;;14.51;64.42;98146.88;5051644;28;20021;-76
2021/09/18 09:07:40;;;;;;;4.20;3.42;;;;;;;14.58;64.95;98149.94;5050462;28;20060;-75
2021/09/18 09:10:06;;;;;;;4.70;4.30;;;;;;;14.64;64.84;98149.75;5051126;28;20067;-76
2021/09/18 09:12:35;;;;;;;5.88;4.22;;;;;;;14.69;64.62;98142.13;5051666;28;20108;-76
2021/09/18 09:15:06;;;;;;;5.25;3.70;;;;;;;14.74;65.36;98144.69;5052093;28;20014;-77
2021/09/18 09:17:33;;;;;;;6.47;3.30;;;;;;;14.74;64.61;98143.91;5051778;28;20028;-76
2021/09/18 09:20:00;;;;;;;8.98;4.00;;;;;;;14.73;63.91;98145.03;5051539;28;20017;-76
2021/09/18 09:22:55;;;;;;;6.93;3.28;;;;;;;14.71;64.36;98152.84;5051109;28;20036;-76
2021/09/18 09:25:35;;;;;;;5.88;3.30;;;;;;;14.70;64.66;98145.69;5044773;28;20052;-76
2021/09/18 09:28:29;;;;;;;6.95;4.50;;;;;;;14.71;64.22;98145.34;5052549;28;20373;-76
2021/09/18 09:31:01;;;;;;;2.90;2.50;;;;;;;14.77;64.43;98148.75;5051397;28;20098;-76
2021/09/18 09:33:28;;;;;;;7.00;2.70;;;;;;;14.79;63.24;98152.00;5048308;28;20546;-77
2021/09/18 09:35:53;;;;;;;3.28;2.83;;;;;;;14.81;63.34;98160.75;5051834;28;20029;-75
2021/09/18 09:38:20;;;;;;;2.90;2.22;;;;;;;14.81;62.68;98154.41;5051466;28;20390;-76
2021/09/18 09:40:48;;;;;;;2.53;2.28;;;;;;;14.79;62.57;98157.53;5051673;28;20121;-75
2021/09/18 09:43:16;;;;;;;3.92;1.83;;;;;;;14.83;63.22;98161.25;5051572;28;20598;-78
2021/09/18 09:45:42;;;;;;;2.17;1.83;;;;;;;14.87;63.41;98156.69;5051487;28;20029;-79
2021/09/18 09:48:14;;;;;;;2.63;1.80;;;;;;;14.91;62.96;98151.28;5051547;28;20106;-79
2021/09/18 09:50:42;;;;;;;1.95;1.75;;;;;;;14.89;62.79;98157.13;5051460;28;20013;-79
2021/09/18 09:53:23;;;;;;;2.40;1.90;;;;;;;14.82;61.98;98167.91;5050976;28;20029;-76
2021/09/18 09:55:49;;;;;;;1.75;1.48;;;;;;;14.73;62.49;98154.13;5046346;28;20474;-82
2021/09/18 09:58:14;;;;;;;2.55;1.80;;;;;;;14.65;62.08;98154.13;5045718;28;20033;-82
2021/09/18 10:00:43;;;;;;;1.65;1.55;;;;;;;14.59;62.52;98151.53;5045316;28;20025;-79
2021/09/18 10:03:09;;;;;;;5.05;1.75;;;;;;;14.58;63.22;98157.41;5050730;28;20468;-79
2021/09/18 10:05:35;;;;;;;3.22;1.77;;;;;;;14.62;63.50;98152.03;5050965;28;20037;-74
2021/09/18 10:08:02;;;;;;;1.70;1.60;;;;;;;14.58;63.68;98152.69;5050772;28;20031;-74
2021/09/18 10:10:28;;;;;;;5.43;2.10;;;;;;;14.61;63.50;98151.22;5049889;28;20583;-74
2021/09/18 10:12:56;;;;;;;2.95;1.90;;;;;;;14.61;63.63;98161.44;5049741;28;20525;-74
2021/09/18 10:15:25;;;;;;;1.85;1.67;;;;;;;14.56;63.64;98154.97;5049535;28;20549;-74
2021/09/18 10:17:53;;;;;;;3.13;2.58;;;;;;;14.50;64.00;98150.75;5049526;28;20481;-74
2021/09/18 10:25:39;;;;;;;4.70;3.00;;;;;;;14.51;64.24;98152.38;5050272;28;20130;-70
2021/09/18 10:28:15;;;;;;;4.40;2.88;;;;;;;14.57;64.43;98155.78;5050041;28;20401;-72
2021/09/18 10:30:44;;;;;;;4.05;3.10;;;;;;;14.64;64.59;98155.28;5049629;28;20032;-71
2021/09/18 10:33:34;;;;;;;3.58;3.10;;;;;;;14.73;64.95;98156.06;5048541;28;20032;-67
2021/09/18 10:36:12;;;;;;;5.85;2.90;;;;;;;14.82;65.21;98151.34;5048761;28;20424;-67
2021/09/18 10:38:45;;;;;;;2.72;2.30;;;;;;;14.91;65.01;98158.75;5049082;28;20059;-67
2021/09/18 10:41:12;;;;;;;2.38;1.95;;;;;;;14.99;65.22;98152.38;5049743;28;20056;-67
2021/09/18 10:43:43;;;;;;;2.88;2.25;;;;;;;15.00;64.48;98151.22;5049060;28;20475;-67
2021/09/18 10:46:31;;;;;;;3.72;2.45;;;;;;;15.00;64.15;98154.00;5050543;28;20033;-67
2021/09/18 10:48:57;;;;;;;3.58;2.47;;;;;;;15.00;64.31;98146.53;5048378;28;20033;-67
2021/09/18 10:51:34;;;;;;;6.70;3.28;;;;;;;15.07;64.35;98139.69;5050272;28;20021;-70
2021/09/18 10:54:12;;;;;;;4.80;3.38;;;;;;;15.13;63.98;98147.44;5049635;28;20040;-69
2021/09/18 10:57:05;;;;;;;2.88;2.28;;;;;;;15.22;62.93;98141.84;5044675;28;20043;-68
2021/09/18 10:59:41;;;;;;;3.78;2.47;;;;;;;15.30;63.53;98146.50;5043542;28;20041;-73
2021/09/18 11:02:35;;;;;;;2.53;2.33;;;;;;;15.43;62.84;98152.91;5047969;28;20033;-71
2021/09/18 11:05:21;;;;;;;3.15;2.65;;;;;;;15.51;62.37;98148.47;5053569;28;20560;-77
2021/09/18 11:07:58;;;;;;;5.07;2.92;;;;;;;15.60;62.56;98145.66;5048738;28;20045;-76
2021/09/18 11:10:23;;;;;;;3.25;2.63;;;;;;;15.65;61.51;98147.38;5046730;28;20025;-77
2021/09/18 11:13:07;;;;;;;3.33;2.90;;;;;;;15.71;61.42;98146.84;5049753;28;20049;-76
2021/09/18 11:15:59;;;;;;;3.58;3.15;;;;;;;15.78;61.96;98138.00;5048686;28;20090;-76
2021/09/18 11:18:38;;;;;;;4.10;2.65;;;;;;;15.87;62.06;98143.50;5049275;28;20057;-76
2021/09/18 11:21:10;;;;;;;4.93;3.28;;;;;;;15.91;61.16;98149.97;5049647;28;20033;-77
2021/09/18 11:23:36;;;;;;;3.15;2.42;;;;;;;15.87;61.38;98144.31;5049347;28;20052;-79
2021/09/18 11:26:32;;;;;;;5.93;2.88;;;;;;;15.84;60.66;98149.66;5050502;28;20029;-77
2021/09/18 11:29:16;;;;;;;4.88;3.70;;;;;;;15.72;60.83;98153.97;5050201;28;20078;-88
2021/09/18 11:31:59;;;;;;;6.70;3.67;;;;;;;15.66;61.15;98147.06;5050105;28;20021;-76
2021/09/18 11:34:27;;;;;;;6.30;3.85;;;;;;;15.62;61.50;98157.19;5049823;28;20032;-80
2021/09/18 11:36:55;;;;;;;16.95;9.00;;;;;;;15.61;61.62;98156.34;5050237;28;20033;-79
2021/09/18 11:39:40;;;;;;;9.55;6.07;;;;;;;15.53;61.26;98157.22;5048679;28;20443;-79
2021/09/18 11:42:13;;;;;;;3.05;2.50;;;;;;;15.42;61.39;98158.78;5050328;28;20478;-78